createdAt,value
2018-09-17T00:01:16.453Z,99.90
2018-09-17T00:03:45.974Z,99.90
2018-09-17T00:06:15.106Z,99.90
2018-09-17T00:08:44.253Z,99.90
2018-09-17T00:11:13.557Z,99.90
2018-09-17T00:13:42.854Z,99.90
2018-09-17T00:16:12.050Z,99.90
2018-09-17T00:18:41.222Z,99.90
2018-09-17T00:21:10.455Z,99.90
2018-09-17T00:23:39.709Z,99.90
2018-09-17T00:26:09.025Z,99.90
2018-09-17T00:28:38.233Z,99.90
2018-09-17T00:31:07.393Z,99.90
2018-09-17T00:33:36.633Z,99.90
2018-09-17T00:36:05.746Z,99.90
2018-09-17T00:38:34.925Z,99.90
2018-09-17T00:41:04.757Z,99.90
2018-09-17T00:43:33.805Z,99.90
2018-09-17T00:46:02.924Z,99.90
2018-09-17T00:48:31.945Z,99.90
2018-09-17T00:51:00.955Z,99.90
2018-09-17T00:53:30.134Z,99.90
2018-09-17T00:55:59.354Z,99.90
2018-09-17T00:58:28.486Z,99.90
2018-09-17T01:00:57.755Z,99.90
2018-09-17T01:03:26.913Z,99.90
2018-09-17T01:05:56.004Z,99.90
2018-09-17T01:08:25.095Z,99.90
2018-09-17T01:10:54.269Z,99.90
2018-09-17T01:13:23.606Z,99.90
2018-09-17T01:15:52.849Z,99.90
2018-09-17T01:18:22.045Z,99.90
2018-09-17T01:20:51.094Z,99.90
2018-09-17T01:23:20.296Z,99.90
2018-09-17T01:25:49.575Z,99.90
2018-09-17T01:28:18.826Z,99.90
2018-09-17T01:30:48.492Z,99.90
2018-09-17T01:33:17.773Z,99.90
2018-09-17T01:35:47.442Z,99.90
2018-09-17T01:38:16.805Z,99.90
2018-09-17T01:40:46.146Z,99.90
2018-09-17T01:43:15.329Z,99.90
2018-09-17T01:45:44.404Z,99.90
2018-09-17T01:48:13.465Z,99.90
2018-09-17T01:50:42.646Z,99.90
2018-09-17T01:53:12.042Z,99.90
2018-09-17T01:55:41.249Z,99.90
2018-09-17T01:58:10.515Z,99.90
2018-09-17T02:00:39.697Z,99.90
2018-09-17T02:03:09.036Z,99.90
2018-09-17T02:05:38.279Z,99.90
2018-09-17T02:08:07.892Z,99.90
2018-09-17T02:10:36.834Z,99.90
2018-09-17T02:13:06.061Z,99.90
2018-09-17T02:15:35.090Z,99.90
2018-09-17T02:18:04.255Z,99.90
2018-09-17T02:20:33.489Z,99.90
2018-09-17T02:23:02.658Z,99.90
2018-09-17T02:25:31.843Z,99.90
2018-09-17T02:28:01.034Z,99.90
2018-09-17T02:30:30.859Z,99.90
2018-09-17T02:33:00.069Z,99.90
2018-09-17T02:35:29.221Z,99.90
2018-09-17T02:37:58.348Z,99.90
2018-09-17T02:40:27.490Z,99.90
2018-09-17T02:42:56.570Z,99.90
2018-09-17T02:45:25.894Z,99.90
2018-09-17T02:47:55.765Z,99.90
2018-09-17T02:50:24.911Z,99.90
2018-09-17T02:52:54.106Z,99.90
2018-09-17T02:55:23.231Z,99.90
2018-09-17T02:57:52.485Z,99.90
2018-09-17T03:00:21.844Z,99.90
2018-09-17T03:02:52.494Z,99.90
2018-09-17T03:05:21.941Z,99.90
2018-09-17T03:07:51.157Z,99.90
2018-09-17T03:10:20.213Z,99.90
2018-09-17T03:12:49.595Z,99.90
2018-09-17T03:15:29.643Z,99.90
2018-09-17T03:17:58.913Z,99.90
2018-09-17T03:20:28.305Z,99.90
2018-09-17T03:22:57.470Z,99.90
2018-09-17T03:25:26.741Z,99.90
2018-09-17T03:27:55.974Z,99.90
2018-09-17T03:30:25.219Z,99.90
2018-09-17T03:32:54.417Z,99.90
2018-09-17T03:35:23.697Z,99.90
2018-09-17T03:37:52.938Z,99.90
2018-09-17T03:40:22.226Z,99.90
2018-09-17T03:42:51.233Z,99.90
2018-09-17T03:45:20.418Z,99.90
2018-09-17T03:47:49.614Z,99.90
2018-09-17T03:50:18.828Z,99.90
2018-09-17T03:52:47.926Z,99.90
2018-09-17T03:55:17.048Z,99.90
2018-09-17T03:57:46.114Z,99.90
2018-09-17T04:00:15.170Z,99.90
2018-09-17T04:02:44.779Z,99.90
2018-09-17T04:05:13.989Z,99.90
2018-09-17T04:07:43.229Z,99.90
2018-09-17T04:10:12.392Z,99.90
2018-09-17T04:12:41.481Z,99.90
2018-09-17T04:15:10.666Z,99.90
2018-09-17T04:17:39.769Z,99.90
2018-09-17T04:20:09.296Z,99.90
2018-09-17T04:22:38.346Z,99.90
2018-09-17T04:25:07.641Z,99.90
2018-09-17T04:27:36.921Z,99.90
2018-09-17T04:30:06.319Z,99.90
2018-09-17T04:32:35.746Z,99.90
2018-09-17T04:35:06.132Z,99.90
2018-09-17T04:37:36.162Z,99.90
2018-09-17T04:40:05.442Z,99.90
2018-09-17T04:42:34.986Z,99.90
2018-09-17T04:45:04.157Z,99.90
2018-09-17T04:47:33.766Z,99.90
2018-09-17T04:50:02.949Z,99.90
2018-09-17T04:52:32.722Z,99.90
2018-09-17T04:55:02.298Z,99.90
2018-09-17T04:57:32.739Z,99.90
2018-09-17T05:00:01.796Z,99.90
2018-09-17T05:02:31.079Z,99.90
2018-09-17T05:05:00.271Z,99.90
2018-09-17T05:07:29.406Z,99.90
2018-09-17T05:09:58.514Z,99.90
2018-09-17T05:12:27.778Z,99.90
2018-09-17T05:14:57.397Z,99.90
2018-09-17T05:17:26.666Z,99.90
2018-09-17T05:19:55.842Z,99.90
2018-09-17T05:22:24.993Z,99.90
2018-09-17T05:24:54.293Z,99.90
2018-09-17T05:27:23.600Z,99.90
2018-09-17T05:29:52.826Z,99.90
2018-09-17T05:32:22.094Z,99.90
2018-09-17T05:34:51.397Z,99.90
2018-09-17T05:37:20.714Z,99.90
2018-09-17T05:39:49.798Z,99.90
2018-09-17T05:42:19.002Z,99.90
2018-09-17T05:44:48.186Z,99.90
2018-09-17T05:47:17.274Z,99.90
2018-09-17T05:49:46.611Z,99.90
2018-09-17T05:52:15.809Z,99.90
2018-09-17T05:54:45.145Z,99.90
2018-09-17T05:57:14.241Z,99.90
2018-09-17T05:59:43.458Z,99.90
2018-09-17T06:02:12.757Z,99.90
2018-09-17T06:04:42.053Z,99.90
2018-09-17T06:07:11.185Z,99.90
2018-09-17T06:09:40.176Z,99.90
2018-09-17T06:12:09.500Z,99.90
2018-09-17T06:14:38.691Z,99.90
2018-09-17T06:17:07.853Z,99.90
2018-09-17T06:19:36.997Z,99.90
2018-09-17T06:22:06.140Z,99.90
2018-09-17T06:24:35.321Z,99.90
2018-09-17T06:27:04.525Z,99.90
2018-09-17T06:29:33.672Z,99.90
2018-09-17T06:32:03.000Z,99.90
2018-09-17T06:34:32.014Z,99.90
2018-09-17T06:37:01.157Z,99.90
2018-09-17T06:39:30.312Z,99.90
2018-09-17T06:41:59.526Z,99.90
2018-09-17T06:44:28.882Z,99.90
2018-09-17T06:46:58.053Z,99.90
2018-09-17T06:49:27.288Z,99.90
2018-09-17T06:51:56.637Z,99.90
2018-09-17T06:54:25.837Z,99.90
2018-09-17T06:56:54.918Z,99.90
2018-09-17T06:59:24.070Z,99.90
2018-09-17T07:01:53.246Z,99.90
2018-09-17T07:04:22.474Z,99.90
2018-09-17T07:06:51.725Z,99.90
2018-09-17T07:09:20.939Z,99.90
2018-09-17T07:11:50.026Z,99.90
2018-09-17T07:14:19.315Z,99.90
2018-09-17T07:16:48.508Z,99.90
2018-09-17T07:19:17.776Z,99.90
2018-09-17T07:21:46.887Z,99.90
2018-09-17T07:24:17.006Z,99.90
2018-09-17T07:26:46.202Z,99.90
2018-09-17T07:29:15.483Z,99.90
2018-09-17T07:31:44.733Z,99.90
2018-09-17T07:34:14.045Z,99.90
2018-09-17T07:36:43.537Z,99.90
2018-09-17T07:39:13.041Z,99.90
2018-09-17T07:41:42.254Z,99.90
2018-09-17T07:44:11.425Z,99.90
2018-09-17T07:46:40.526Z,99.90
2018-09-17T07:49:09.717Z,99.90
2018-09-17T07:51:38.720Z,99.90
2018-09-17T07:54:07.865Z,99.90
2018-09-17T07:56:36.927Z,99.90
2018-09-17T07:59:06.074Z,99.90
2018-09-17T08:01:35.167Z,99.90
2018-09-17T08:04:04.317Z,99.90
2018-09-17T08:06:33.470Z,99.90
2018-09-17T08:09:02.725Z,99.90
2018-09-17T08:11:31.802Z,99.90
2018-09-17T08:14:00.817Z,99.90
2018-09-17T08:16:30.010Z,99.90
2018-09-17T08:18:59.170Z,99.90
2018-09-17T08:21:28.245Z,99.90
2018-09-17T08:23:57.428Z,99.90
2018-09-17T08:26:26.508Z,99.90
2018-09-17T08:28:55.555Z,99.90
2018-09-17T08:31:24.980Z,99.90
2018-09-17T08:33:54.133Z,99.90
2018-09-17T08:36:23.238Z,99.90
2018-09-17T08:38:52.494Z,98.60
2018-09-17T08:41:21.578Z,93.90
2018-09-17T08:43:50.807Z,90.50
2018-09-17T08:46:19.929Z,83.30
2018-09-17T08:48:49.074Z,77.40
2018-09-17T08:51:18.247Z,83.10
2018-09-17T08:53:47.532Z,70.10
2018-09-17T08:56:20.570Z,66.60
2018-09-17T08:58:54.873Z,62.90
2018-09-17T09:01:29.849Z,65.00
2018-09-17T09:04:04.018Z,58.40
2018-09-17T09:06:38.170Z,57.20
2018-09-17T09:09:09.786Z,56.30
2018-09-17T09:11:44.054Z,55.00
2018-09-17T09:14:43.617Z,54.90
2018-09-17T09:17:12.967Z,54.80
2018-09-17T09:19:41.997Z,52.30
2018-09-17T09:22:11.238Z,50.30
2018-09-17T09:24:40.226Z,53.20
2018-09-17T09:27:09.446Z,51.80
2018-09-17T09:29:38.494Z,50.80
2018-09-17T09:32:07.723Z,54.40
2018-09-17T09:34:36.876Z,50.00
2018-09-17T09:37:05.899Z,49.50
2018-09-17T09:39:34.896Z,50.20
2018-09-17T09:42:03.927Z,48.70
2018-09-17T09:44:33.142Z,46.70
2018-09-17T09:47:02.355Z,45.70
2018-09-17T09:49:31.522Z,45.90
2018-09-17T09:52:00.625Z,45.80
2018-09-17T09:54:29.813Z,45.60
2018-09-17T09:56:58.998Z,45.30
2018-09-17T09:59:28.205Z,43.20
2018-09-17T10:02:02.526Z,44.80
2018-09-17T10:04:31.636Z,44.60
2018-09-17T10:07:00.809Z,46.10
2018-09-17T10:09:35.090Z,44.90
2018-09-17T10:12:09.269Z,44.00
2018-09-17T10:16:45.798Z,43.90
2018-09-17T10:19:19.799Z,43.20
2018-09-17T10:21:48.961Z,44.90
2018-09-17T10:24:18.062Z,42.90
2018-09-17T10:26:47.202Z,42.50
2018-09-17T10:29:17.059Z,42.80
2018-09-17T10:31:46.603Z,42.70
2018-09-17T10:34:16.289Z,42.70
2018-09-17T10:36:45.532Z,42.60
2018-09-17T10:39:15.192Z,44.50
2018-09-17T10:41:44.447Z,42.90
2018-09-17T10:44:13.673Z,42.40
2018-09-17T10:46:42.714Z,40.70
2018-09-17T10:49:11.885Z,40.30
2018-09-17T10:51:41.557Z,39.70
2018-09-17T10:54:10.615Z,39.40
2018-09-17T10:56:39.662Z,39.70
2018-09-17T10:59:08.794Z,40.20
2018-09-17T11:01:38.053Z,39.90
2018-09-17T11:04:07.254Z,40.40
2018-09-17T11:06:36.345Z,42.20
2018-09-17T11:09:08.122Z,41.20
2018-09-17T11:11:37.124Z,40.60
2018-09-17T11:14:06.474Z,40.40
2018-09-17T11:16:35.565Z,39.70
2018-09-17T11:19:04.661Z,40.60
2018-09-17T11:21:33.776Z,40.10
2018-09-17T11:24:02.860Z,39.40
2018-09-17T11:26:32.067Z,40.00
2018-09-17T11:29:01.165Z,39.00
2018-09-17T11:31:30.224Z,38.80
2018-09-17T11:33:59.258Z,37.70
2018-09-17T11:36:28.437Z,37.80
2018-09-17T11:38:57.505Z,37.30
2018-09-17T11:41:26.768Z,37.90
2018-09-17T11:43:55.953Z,36.40
2018-09-17T11:46:25.470Z,36.70
2018-09-17T11:48:54.578Z,36.90
2018-09-17T11:51:23.769Z,36.90
2018-09-17T11:53:53.090Z,37.50
2018-09-17T11:56:22.235Z,39.20
2018-09-17T11:58:51.234Z,37.50
2018-09-17T12:01:25.662Z,38.10
2018-09-17T12:03:59.905Z,37.30
2018-09-17T12:06:34.734Z,36.80
2018-09-17T12:09:05.307Z,36.50
2018-09-17T12:11:35.351Z,36.60
2018-09-17T12:14:04.564Z,36.80
2018-09-17T12:16:33.750Z,36.50
2018-09-17T12:19:02.861Z,37.80
2018-09-17T12:21:31.825Z,36.90
2018-09-17T12:24:01.189Z,37.10
2018-09-17T12:26:30.320Z,37.90
2018-09-17T12:28:59.382Z,38.50
2018-09-17T12:31:28.591Z,38.00
2018-09-17T12:33:57.776Z,38.20
2018-09-17T12:36:26.893Z,38.00
2018-09-17T12:38:55.989Z,39.50
2018-09-17T12:41:25.132Z,39.20
2018-09-17T12:43:54.469Z,38.60
2018-09-17T12:46:23.681Z,38.10
2018-09-17T12:48:52.989Z,37.40
2018-09-17T12:51:22.009Z,36.80
2018-09-17T12:53:51.219Z,37.60
2018-09-17T12:56:20.375Z,38.20
2018-09-17T12:58:49.598Z,39.10
2018-09-17T13:01:18.838Z,40.50
2018-09-17T13:03:48.026Z,41.00
2018-09-17T13:06:17.187Z,41.40
2018-09-17T13:08:46.369Z,42.10
2018-09-17T13:11:15.515Z,43.50
2018-09-17T13:13:44.673Z,43.00
2018-09-17T13:16:13.693Z,43.40
2018-09-17T13:18:42.775Z,44.80
2018-09-17T13:21:11.987Z,45.10
2018-09-17T13:23:41.246Z,45.00
2018-09-17T13:26:10.271Z,45.50
2018-09-17T13:28:39.334Z,46.30
2018-09-17T13:31:08.433Z,46.30
2018-09-17T13:33:37.676Z,45.70
2018-09-17T13:36:06.841Z,46.60
2018-09-17T13:38:36.392Z,46.80
2018-09-17T13:41:05.529Z,47.70
2018-09-17T13:43:34.621Z,48.10
2018-09-17T13:46:04.556Z,48.50
2018-09-17T13:48:33.859Z,48.80
2018-09-17T13:51:03.183Z,49.30
2018-09-17T13:53:33.143Z,49.40
2018-09-17T13:56:03.410Z,49.40
2018-09-17T13:58:32.725Z,48.30
2018-09-17T14:01:01.970Z,48.80
2018-09-17T14:03:31.196Z,48.70
2018-09-17T14:06:00.447Z,49.60
2018-09-17T14:08:29.755Z,48.50
2018-09-17T14:10:58.973Z,47.90
2018-09-17T14:13:28.225Z,47.70
2018-09-17T14:16:06.774Z,48.40
2018-09-17T14:18:36.715Z,48.90
2018-09-17T14:21:05.967Z,50.00
2018-09-17T14:23:35.367Z,51.70
2018-09-17T14:26:04.533Z,51.60
2018-09-17T14:28:33.594Z,51.20
2018-09-17T14:31:02.973Z,51.20
2018-09-17T14:33:37.557Z,51.10
2018-09-17T14:36:06.884Z,51.80
2018-09-17T14:38:36.009Z,52.70
2018-09-17T14:41:05.154Z,53.10
2018-09-17T14:43:34.450Z,53.80
2018-09-17T14:46:03.632Z,54.20
2018-09-17T14:48:32.894Z,54.60
2018-09-17T14:51:02.068Z,54.40
2018-09-17T14:53:31.081Z,54.70
2018-09-17T14:56:00.914Z,55.40
2018-09-17T14:58:30.478Z,55.10
2018-09-17T15:00:59.662Z,55.50
2018-09-17T15:03:28.923Z,55.50
2018-09-17T15:05:58.222Z,55.60
2018-09-17T15:08:27.398Z,55.90
2018-09-17T15:10:56.654Z,56.50
2018-09-17T15:13:26.255Z,56.10
2018-09-17T15:15:59.434Z,56.50
2018-09-17T15:18:28.595Z,56.80
2018-09-17T15:20:57.707Z,57.20
2018-09-17T15:23:26.884Z,56.70
2018-09-17T15:25:56.169Z,57.10
2018-09-17T15:28:25.578Z,57.90
2018-09-17T15:30:54.541Z,58.50
2018-09-17T15:33:23.691Z,58.80
2018-09-17T15:35:52.913Z,58.90
2018-09-17T15:38:22.282Z,58.50
2018-09-17T15:40:51.474Z,58.40
2018-09-17T15:43:20.683Z,58.80
2018-09-17T15:45:49.880Z,59.10
2018-09-17T15:48:19.078Z,59.20
2018-09-17T15:50:48.315Z,60.10
2018-09-17T15:53:17.365Z,60.20
2018-09-17T15:55:46.620Z,61.10
2018-09-17T15:58:15.744Z,62.00
2018-09-17T16:00:44.761Z,62.40
2018-09-17T16:03:14.411Z,63.20
2018-09-17T16:05:43.519Z,63.40
2018-09-17T16:08:12.701Z,63.90
2018-09-17T16:10:41.898Z,63.60
2018-09-17T16:13:11.011Z,63.90
2018-09-17T16:15:40.215Z,64.00
2018-09-17T16:18:09.318Z,64.50
2018-09-17T16:20:38.506Z,64.80
2018-09-17T16:23:07.757Z,64.80
2018-09-17T16:25:36.975Z,65.30
2018-09-17T16:28:06.309Z,65.70
2018-09-17T16:30:35.529Z,65.60
2018-09-17T16:33:04.813Z,66.00
2018-09-17T16:35:34.006Z,66.30
2018-09-17T16:38:03.108Z,66.90
2018-09-17T16:40:32.334Z,68.40
2018-09-17T16:43:01.442Z,68.20
2018-09-17T16:45:30.534Z,68.60
2018-09-17T16:47:59.698Z,68.80
2018-09-17T16:50:28.886Z,69.80
2018-09-17T16:52:58.047Z,70.20
2018-09-17T16:55:27.213Z,70.50
2018-09-17T16:57:56.395Z,70.80
2018-09-17T17:00:25.428Z,70.80
2018-09-17T17:02:54.539Z,72.20
2018-09-17T17:05:23.762Z,71.30
2018-09-17T17:07:52.957Z,71.90
2018-09-17T17:10:22.200Z,72.40
2018-09-17T17:12:51.457Z,72.30
2018-09-17T17:15:20.639Z,71.90
2018-09-17T17:17:49.813Z,72.30
2018-09-17T17:20:19.078Z,73.10
2018-09-17T17:22:48.381Z,72.50
2018-09-17T17:25:17.377Z,73.20
2018-09-17T17:27:46.632Z,72.80
2018-09-17T17:30:15.955Z,73.30
2018-09-17T17:32:45.134Z,72.80
2018-09-17T17:35:14.825Z,72.90
2018-09-17T17:37:44.112Z,72.40
2018-09-17T17:40:13.485Z,72.70
2018-09-17T17:42:42.754Z,73.00
2018-09-17T17:45:11.950Z,73.20
2018-09-17T17:47:41.114Z,73.10
2018-09-17T17:50:10.270Z,73.60
2018-09-17T17:52:39.461Z,73.80
2018-09-17T17:55:08.722Z,74.10
2018-09-17T17:57:37.872Z,74.10
2018-09-17T18:00:09.019Z,73.60
2018-09-17T18:02:38.096Z,74.30
2018-09-17T18:05:07.351Z,73.70
2018-09-17T18:07:36.841Z,74.30
2018-09-17T18:10:06.466Z,74.00
2018-09-17T18:12:35.606Z,74.40
2018-09-17T18:15:05.104Z,73.50
2018-09-17T18:17:34.423Z,73.80
2018-09-17T18:20:03.649Z,73.80
2018-09-17T18:22:32.858Z,74.00
2018-09-17T18:25:02.337Z,74.40
2018-09-17T18:27:32.583Z,74.70
2018-09-17T18:30:02.676Z,74.40
2018-09-17T18:32:31.777Z,74.70
2018-09-17T18:35:00.997Z,75.10
2018-09-17T18:37:31.154Z,75.30
2018-09-17T18:40:00.318Z,75.90
2018-09-17T18:42:29.467Z,76.30
2018-09-17T18:44:58.669Z,76.70
2018-09-17T18:47:27.644Z,77.90
2018-09-17T18:49:56.846Z,77.60
2018-09-17T18:52:25.896Z,78.00
2018-09-17T18:54:54.996Z,78.70
2018-09-17T18:57:24.418Z,79.10
2018-09-17T18:59:53.852Z,79.20
2018-09-17T19:02:23.786Z,79.50
2018-09-17T19:04:53.987Z,79.90
2018-09-17T19:07:23.954Z,80.50
2018-09-17T19:09:53.037Z,81.00
2018-09-17T19:12:22.588Z,81.20
2018-09-17T19:14:56.851Z,81.80
2018-09-17T19:17:31.073Z,82.20
2018-09-17T19:20:00.511Z,82.50
2018-09-17T19:24:38.285Z,83.00
2018-09-17T19:27:07.442Z,83.40
2018-09-17T19:29:37.591Z,84.40
2018-09-17T19:32:06.807Z,85.10
2018-09-17T19:34:36.065Z,85.40
2018-09-17T19:37:10.886Z,85.80
2018-09-17T19:39:45.208Z,86.40
2018-09-17T19:42:14.279Z,87.00
2018-09-17T19:44:49.909Z,87.50
2018-09-17T19:47:19.131Z,87.90
2018-09-17T19:49:49.119Z,88.50
2018-09-17T19:52:19.252Z,89.60
2018-09-17T19:54:48.899Z,90.00
2018-09-17T19:57:23.253Z,90.10
2018-09-17T19:59:55.320Z,90.40
2018-09-17T20:02:25.074Z,90.80
2018-09-17T20:04:59.392Z,91.10
2018-09-17T20:07:28.677Z,91.40
2018-09-17T20:09:58.581Z,91.70
2018-09-17T20:12:28.399Z,91.90
2018-09-17T20:14:57.743Z,92.30
2018-09-17T20:17:27.085Z,92.60
2018-09-17T20:19:56.222Z,93.10
2018-09-17T20:22:25.512Z,93.10
2018-09-17T20:24:55.094Z,93.10
2018-09-17T20:27:24.392Z,93.30
2018-09-17T20:29:53.663Z,93.60
2018-09-17T20:32:23.816Z,93.90
2018-09-17T20:34:52.999Z,94.10
2018-09-17T20:37:23.217Z,94.40
2018-09-17T20:39:53.247Z,94.70
2018-09-17T20:42:23.817Z,94.80
2018-09-17T20:44:55.031Z,95.00
2018-09-17T20:47:24.429Z,95.20
2018-09-17T20:49:54.023Z,95.70
2018-09-17T20:52:23.174Z,95.80
2018-09-17T20:54:52.575Z,96.30
2018-09-17T20:57:21.967Z,96.40
2018-09-17T20:59:51.214Z,96.60
2018-09-17T21:02:23.248Z,97.20
2018-09-17T21:04:52.511Z,97.30
2018-09-17T21:07:21.759Z,97.30
2018-09-17T21:09:50.982Z,98.20
2018-09-17T21:12:21.461Z,97.80
2018-09-17T21:14:50.542Z,98.10
2018-09-17T21:17:19.743Z,98.50
2018-09-17T21:19:49.031Z,98.80
2018-09-17T21:22:19.117Z,99.20
2018-09-17T21:24:48.265Z,99.30
2018-09-17T21:27:17.520Z,99.50
2018-09-17T21:29:47.909Z,99.90
2018-09-17T21:32:19.238Z,99.90
2018-09-17T21:34:48.556Z,99.90
2018-09-17T21:37:20.136Z,99.90
2018-09-17T21:39:49.275Z,99.90
2018-09-17T21:42:18.531Z,99.90
2018-09-17T21:44:47.553Z,99.90
2018-09-17T21:47:17.436Z,99.90
2018-09-17T21:49:48.033Z,99.90
2018-09-17T21:52:17.384Z,99.90
2018-09-17T21:54:46.562Z,99.90
2018-09-17T21:57:15.734Z,99.90
2018-09-17T21:59:44.808Z,99.90
2018-09-17T22:02:14.074Z,99.90
2018-09-17T22:04:43.470Z,99.90
2018-09-17T22:07:12.706Z,99.90
2018-09-17T22:09:41.963Z,99.90
2018-09-17T22:12:11.153Z,99.90
2018-09-17T22:14:41.459Z,99.90
2018-09-17T22:17:10.594Z,99.90
2018-09-17T22:19:39.735Z,99.90
2018-09-17T22:22:09.099Z,99.90
2018-09-17T22:24:38.492Z,99.90
2018-09-17T22:27:07.919Z,99.90
2018-09-17T22:29:37.034Z,99.90
2018-09-17T22:32:06.190Z,99.90
2018-09-17T22:34:35.340Z,99.90
2018-09-17T22:37:04.407Z,99.90
2018-09-17T22:39:33.702Z,99.90
2018-09-17T22:42:02.966Z,99.90
2018-09-17T22:44:32.245Z,99.90
2018-09-17T22:47:01.415Z,99.90
2018-09-17T22:49:30.723Z,99.90
2018-09-17T22:52:01.040Z,99.90
2018-09-17T22:54:30.197Z,99.90
2018-09-17T22:56:59.317Z,99.90
2018-09-17T22:59:28.433Z,99.90
2018-09-17T23:01:57.650Z,99.90
2018-09-17T23:04:26.842Z,99.90
2018-09-17T23:06:56.010Z,99.90
2018-09-17T23:09:25.447Z,99.90
2018-09-17T23:11:54.609Z,99.90
2018-09-17T23:14:23.801Z,99.90
2018-09-17T23:16:53.046Z,99.90
2018-09-17T23:19:22.720Z,99.90
2018-09-17T23:21:51.950Z,99.90
2018-09-17T23:24:21.158Z,99.90
2018-09-17T23:26:50.271Z,99.90
2018-09-17T23:29:19.348Z,99.90
2018-09-17T23:31:48.421Z,99.90
2018-09-17T23:34:17.674Z,99.90
2018-09-17T23:36:46.854Z,99.90
2018-09-17T23:39:16.059Z,99.90
2018-09-17T23:41:45.163Z,99.90
2018-09-17T23:44:14.377Z,99.90
2018-09-17T23:46:44.235Z,99.90
2018-09-17T23:49:13.377Z,99.90
2018-09-17T23:51:42.693Z,99.90
2018-09-17T23:54:11.801Z,99.90
2018-09-17T23:56:40.918Z,99.90
2018-09-17T23:59:10.159Z,99.90
